Pagrindinis puslapis
METAR-TAF:

METAR-TAF

Oro uostai :

Kanai, Prancūzija

platuma: 43-33N, ilguma: 006-57E, Aukštis: 3 m

Dabartinis oras

Ataskaita buvo paskelbta 39 minutes, ne 04:00 UTC
Ramus vėjas
Temperatūra 5°C
Drėgmė 100%
Slėgis 1021 hPa
Matomumas 10 km arba daugiau
nėra debesų žemiau 1500 m ir nėra kamuolinių lietaus debesų

METAR: LFMD 180400Z AUTO 00000KT CAVOK 05/05 Q1021 NOSIG

Laikas: 05:39 (04:39 UTC)

Prognozė

Ataskaita buvo paskelbta 2 valandos ir 39 minutes, ne 02:00 UTC
Prognozė galioja nuo 18 metu 03 UTC su 19 metu 03 UTC
Vėjas 3 kt nuo kintamojo kryptimis
Matomumas 10 km arba daugiau
nėra debesų žemiau 1500 m ir nėra kamuolinių lietaus debesų
Tikimybė 30%
nuo 18 metu 08 UTC su 18 metu 10 UTC
Su prošvaistėmis ne aukštis 2000 ft
Laikinai
nuo 18 metu 12 UTC su 18 metu 17 UTC
Vėjas 2 kt nuo kintamojo kryptimis

TAF: LFMD 180200Z 1803/1903 VRB03KT CAVOK PROB30 1808/1810 BKN020 TEMPO 1812/1817 VRB02KT

Orai ataskaitas ir orų prognozės (METAR, TAF).

turimą stotys yra geltonos ir raudonos taškus žemėlapyje.

Perkelti pele per norėdami pamatyti stoties vardą.

Tada spustelėkite, norėdami matyti oro stebėjimo ir prognozės.

Norėdami pakeisti žemėlapį: spustelėkite ant žalios mygtukų su juodo kryžiaus žemyn,; žalią mygtuką su brūkšneliu, jei norite nutolinti; arba žalių rodyklių gretimoms žemėlapius.


METAR-TAF: